createdAt,value
2018-05-01T00:00:38.902Z,11.39
2018-05-01T00:03:04.806Z,11.35
2018-05-01T00:05:34.083Z,11.33
2018-05-01T00:07:59.970Z,11.25
2018-05-01T00:10:27.299Z,11.21
2018-05-01T00:12:53.185Z,11.17
2018-05-01T00:15:21.899Z,11.20
2018-05-01T00:17:47.823Z,11.11
2018-05-01T00:20:16.736Z,11.12
2018-05-01T00:22:42.618Z,11.12
2018-05-01T00:25:11.451Z,11.09
2018-05-01T00:27:37.340Z,11.10
2018-05-01T00:30:03.235Z,11.11
2018-05-01T00:32:29.192Z,11.18
2018-05-01T00:34:55.066Z,11.19
2018-05-01T00:37:24.895Z,11.28
2018-05-01T00:39:50.787Z,11.30
2018-05-01T00:42:17.563Z,11.30
2018-05-01T00:44:43.495Z,11.24
2018-05-01T00:47:12.434Z,11.29
2018-05-01T00:49:38.373Z,11.29
2018-05-01T00:52:07.415Z,11.26
2018-05-01T00:54:33.328Z,11.21
2018-05-01T00:57:02.562Z,11.20
2018-05-01T00:59:28.447Z,11.25
2018-05-01T01:01:57.706Z,11.36
2018-05-01T01:04:23.628Z,11.46
2018-05-01T01:06:49.559Z,11.57
2018-05-01T01:09:15.467Z,11.67
2018-05-01T01:11:41.366Z,11.57
2018-05-01T01:14:08.868Z,11.52
2018-05-01T01:16:34.745Z,11.54
2018-05-01T01:19:04.140Z,11.45
2018-05-01T01:21:30.058Z,11.28
2018-05-01T01:23:57.999Z,11.29
2018-05-01T01:26:23.868Z,11.31
2018-05-01T01:28:52.972Z,11.28
2018-05-01T01:31:18.832Z,11.03
2018-05-01T01:33:48.238Z,10.97
2018-05-01T01:36:13.938Z,10.97
2018-05-01T01:38:42.851Z,10.95
2018-05-01T01:41:08.591Z,10.95
2018-05-01T01:43:34.323Z,10.87
2018-05-01T01:46:00.044Z,10.76
2018-05-01T01:48:25.776Z,10.79
2018-05-01T01:50:53.591Z,10.74
2018-05-01T01:53:19.318Z,10.71
2018-05-01T01:55:47.825Z,10.63
2018-05-01T01:58:13.608Z,10.49
2018-05-01T02:00:39.345Z,10.49
2018-05-01T02:03:05.074Z,10.54
2018-05-01T02:05:30.864Z,10.52
2018-05-01T02:07:58.709Z,10.55
2018-05-01T02:10:24.433Z,10.68
2018-05-01T02:12:50.157Z,10.58
2018-05-01T02:15:15.883Z,10.49
2018-05-01T02:17:41.648Z,10.38
2018-05-01T02:20:07.383Z,10.31
2018-05-01T02:22:33.136Z,10.13
2018-05-01T02:24:58.831Z,10.12
2018-05-01T02:27:24.555Z,9.94
2018-05-01T02:29:50.316Z,9.83
2018-05-01T02:32:16.043Z,9.72
2018-05-01T02:34:41.783Z,9.74
2018-05-01T02:37:07.521Z,9.80
2018-05-01T02:39:33.252Z,9.80
2018-05-01T02:41:58.996Z,9.90
2018-05-01T02:44:24.710Z,9.76
2018-05-01T02:46:50.514Z,9.77
2018-05-01T02:49:16.179Z,9.87
2018-05-01T02:51:41.916Z,9.94
2018-05-01T02:54:07.700Z,9.91
2018-05-01T02:56:33.427Z,9.84
2018-05-01T02:58:59.167Z,9.73
2018-05-01T03:01:24.873Z,9.69
2018-05-01T03:03:50.598Z,9.75
2018-05-01T03:06:16.329Z,9.69
2018-05-01T03:08:42.035Z,9.72
2018-05-01T03:11:07.807Z,9.70
2018-05-01T03:13:33.526Z,9.67
2018-05-01T03:15:59.239Z,9.60
2018-05-01T03:18:24.984Z,9.71
2018-05-01T03:20:50.723Z,9.70
2018-05-01T03:23:16.553Z,9.71
2018-05-01T03:25:42.292Z,9.73
2018-05-01T03:28:08.041Z,9.88
2018-05-01T03:30:33.771Z,9.85
2018-05-01T03:32:59.524Z,9.73
2018-05-01T03:35:25.360Z,9.75
2018-05-01T03:37:51.067Z,9.84
2018-05-01T03:40:16.780Z,9.92
2018-05-01T03:42:42.506Z,9.93
2018-05-01T03:45:08.228Z,9.76
2018-05-01T03:47:33.963Z,9.68
2018-05-01T03:49:59.716Z,9.71
2018-05-01T03:52:25.437Z,9.70
2018-05-01T03:54:51.136Z,9.70
2018-05-01T03:57:16.879Z,9.65
2018-05-01T03:59:42.618Z,9.52
2018-05-01T04:02:08.346Z,9.55
2018-05-01T04:04:34.065Z,9.61
2018-05-01T04:06:59.797Z,9.55
2018-05-01T04:09:25.507Z,9.42
2018-05-01T04:11:51.225Z,9.41
2018-05-01T04:14:16.947Z,9.39
2018-05-01T04:16:44.058Z,9.38
2018-05-01T04:19:09.780Z,9.30
2018-05-01T04:21:39.036Z,9.19
2018-05-01T04:24:04.803Z,9.17
2018-05-01T04:26:30.513Z,9.29
2018-05-01T04:28:56.249Z,9.23
2018-05-01T04:31:21.972Z,8.97
2018-05-01T04:33:51.026Z,8.77
2018-05-01T04:36:16.746Z,8.77
2018-05-01T04:38:44.782Z,8.76
2018-05-01T04:41:10.534Z,8.70
2018-05-01T04:43:39.137Z,8.72
2018-05-01T04:46:04.812Z,8.59
2018-05-01T04:48:30.527Z,8.60
2018-05-01T04:50:56.404Z,8.67
2018-05-01T04:53:22.139Z,8.68
2018-05-01T04:55:50.683Z,8.66
2018-05-01T04:58:16.442Z,8.55
2018-05-01T05:00:42.143Z,8.54
2018-05-01T05:03:07.847Z,8.61
2018-05-01T05:05:33.601Z,8.62
2018-05-01T05:08:01.420Z,8.51
2018-05-01T05:10:27.856Z,8.55
2018-05-01T05:12:53.616Z,8.52
2018-05-01T05:15:19.333Z,8.49
2018-05-01T05:17:45.079Z,8.50
2018-05-01T05:20:10.796Z,8.40
2018-05-01T05:22:36.512Z,8.50
2018-05-01T05:25:02.243Z,8.47
2018-05-01T05:27:27.969Z,8.47
2018-05-01T05:29:53.700Z,8.47
2018-05-01T05:32:19.405Z,8.50
2018-05-01T05:34:45.121Z,8.45
2018-05-01T05:37:10.817Z,8.43
2018-05-01T05:39:36.502Z,8.47
2018-05-01T05:42:02.291Z,8.45
2018-05-01T05:44:28.025Z,8.51
2018-05-01T05:46:53.740Z,8.60
2018-05-01T05:49:19.488Z,8.60
2018-05-01T05:51:45.221Z,8.76
2018-05-01T05:54:10.934Z,8.73
2018-05-01T05:56:36.636Z,8.83
2018-05-01T05:59:02.380Z,8.75
2018-05-01T06:01:28.102Z,8.76
2018-05-01T06:03:53.823Z,8.90
2018-05-01T06:06:19.530Z,8.82
2018-05-01T06:08:45.241Z,8.78
2018-05-01T06:11:10.956Z,8.86
2018-05-01T06:13:37.627Z,8.83
2018-05-01T06:16:03.430Z,8.84
2018-05-01T06:18:29.167Z,8.74
2018-05-01T06:20:54.872Z,8.79
2018-05-01T06:23:20.577Z,8.83
2018-05-01T06:25:46.634Z,8.76
2018-05-01T06:28:12.493Z,8.71
2018-05-01T06:30:38.244Z,8.71
2018-05-01T06:33:04.021Z,8.90
2018-05-01T06:35:29.748Z,8.98
2018-05-01T06:37:55.507Z,9.07
2018-05-01T06:40:21.273Z,9.20
2018-05-01T06:42:47.003Z,9.27
2018-05-01T06:45:12.701Z,9.26
2018-05-01T06:47:38.415Z,9.51
2018-05-01T06:50:04.164Z,9.65
2018-05-01T06:52:29.879Z,9.72
2018-05-01T06:54:55.611Z,9.95
2018-05-01T06:57:21.334Z,10.19
2018-05-01T06:59:47.061Z,10.26
2018-05-01T07:02:12.827Z,10.33
2018-05-01T07:04:38.608Z,10.55
2018-05-01T07:07:04.289Z,10.65
2018-05-01T07:09:30.054Z,10.72
2018-05-01T07:11:55.786Z,10.47
2018-05-01T07:14:21.515Z,10.07
2018-05-01T07:16:47.239Z,9.90
2018-05-01T07:19:12.993Z,10.04
2018-05-01T07:21:41.983Z,10.09
2018-05-01T07:24:07.716Z,10.10
2018-05-01T07:26:36.795Z,10.08
2018-05-01T07:29:02.529Z,10.10
2018-05-01T07:31:31.668Z,9.86
2018-05-01T07:33:57.361Z,9.70
2018-05-01T07:36:25.377Z,9.65
2018-05-01T07:38:51.112Z,9.61
2018-05-01T07:41:19.564Z,9.55
2018-05-01T07:43:45.529Z,9.57
2018-05-01T07:46:11.255Z,9.66
2018-05-01T07:48:39.122Z,9.89
2018-05-01T07:51:04.899Z,10.14
2018-05-01T07:53:31.732Z,10.38
2018-05-01T07:55:57.453Z,10.67
2018-05-01T07:58:25.975Z,10.79
2018-05-01T08:00:51.719Z,10.84
2018-05-01T08:03:17.406Z,10.74
2018-05-01T08:05:43.248Z,10.56
2018-05-01T08:08:08.955Z,10.57
2018-05-01T08:10:36.803Z,10.51
2018-05-01T08:13:02.537Z,10.43
2018-05-01T08:15:28.255Z,10.31
2018-05-01T08:17:53.967Z,10.19
2018-05-01T08:20:19.659Z,10.30
2018-05-01T08:22:45.403Z,10.58
2018-05-01T08:25:11.110Z,10.89
2018-05-01T08:27:36.843Z,11.10
2018-05-01T08:30:02.566Z,11.24
2018-05-01T08:32:28.304Z,11.61
2018-05-01T08:34:54.020Z,11.91
2018-05-01T08:37:20.770Z,11.94
2018-05-01T08:39:46.528Z,11.75
2018-05-01T08:42:12.236Z,11.33
2018-05-01T08:44:37.935Z,10.79
2018-05-01T08:47:03.650Z,10.64
2018-05-01T08:49:35.011Z,10.96
2018-05-01T08:52:00.783Z,11.17
2018-05-01T08:54:26.519Z,11.17
2018-05-01T08:56:52.219Z,11.19
2018-05-01T08:59:17.969Z,11.21
2018-05-01T09:01:43.687Z,11.25
2018-05-01T09:04:09.408Z,11.36
2018-05-01T09:06:35.123Z,11.35
2018-05-01T09:09:00.854Z,11.30
2018-05-01T09:11:29.019Z,11.25
2018-05-01T09:13:54.728Z,11.13
2018-05-01T09:16:20.451Z,11.15
2018-05-01T09:18:46.174Z,11.19
2018-05-01T09:21:11.885Z,11.16
2018-05-01T09:23:37.603Z,10.98
2018-05-01T09:26:03.557Z,11.02
2018-05-01T09:28:29.311Z,11.07
2018-05-01T09:30:55.067Z,11.13
2018-05-01T09:33:20.780Z,11.24
2018-05-01T09:35:46.507Z,11.19
2018-05-01T09:38:12.246Z,11.27
2018-05-01T09:40:37.943Z,11.18
2018-05-01T09:43:03.683Z,11.36
2018-05-01T09:45:29.416Z,11.66
2018-05-01T09:47:55.172Z,11.61
2018-05-01T09:50:20.895Z,11.68
2018-05-01T09:52:46.744Z,12.10
2018-05-01T09:55:12.640Z,12.43
2018-05-01T09:57:38.544Z,12.38
2018-05-01T10:00:04.437Z,12.31
2018-05-01T10:02:30.359Z,12.10
2018-05-01T10:04:56.304Z,12.27
2018-05-01T10:07:22.195Z,12.13
2018-05-01T10:09:48.073Z,12.37
2018-05-01T10:12:14.027Z,12.41
2018-05-01T10:14:40.651Z,12.18
2018-05-01T10:17:06.620Z,12.16
2018-05-01T10:19:32.530Z,12.20
2018-05-01T10:21:58.467Z,12.45
2018-05-01T10:24:24.348Z,12.69
2018-05-01T10:26:50.251Z,12.65
2018-05-01T10:29:16.143Z,12.68
2018-05-01T10:31:42.088Z,12.85
2018-05-01T10:34:08.053Z,13.13
2018-05-01T10:36:33.992Z,13.32
2018-05-01T10:39:00.009Z,13.05
2018-05-01T10:41:25.840Z,12.94
2018-05-01T10:43:51.741Z,12.94
2018-05-01T10:46:17.732Z,12.77
2018-05-01T10:48:43.608Z,12.83
2018-05-01T10:51:12.451Z,12.87
2018-05-01T10:53:38.380Z,12.72
2018-05-01T10:56:06.915Z,12.57
2018-05-01T10:58:32.811Z,12.63
2018-05-01T11:01:02.227Z,12.81
2018-05-01T11:03:28.148Z,13.03
2018-05-01T11:05:57.745Z,13.47
2018-05-01T11:08:23.636Z,13.74
2018-05-01T11:10:49.535Z,13.88
2018-05-01T11:13:15.416Z,14.03
2018-05-01T11:15:41.328Z,14.01
2018-05-01T11:18:09.075Z,14.11
2018-05-01T11:20:34.966Z,13.93
2018-05-01T11:23:04.210Z,13.57
2018-05-01T11:25:30.096Z,13.32
2018-05-01T11:27:57.971Z,13.58
2018-05-01T11:30:23.879Z,13.86
2018-05-01T11:32:53.286Z,13.91
2018-05-01T11:35:19.173Z,14.26
2018-05-01T11:37:48.335Z,14.17
2018-05-01T11:40:14.337Z,14.03
2018-05-01T11:42:42.052Z,14.03
2018-05-01T11:45:07.964Z,13.95
2018-05-01T11:47:33.879Z,14.13
2018-05-01T11:49:59.718Z,14.37
2018-05-01T11:52:25.614Z,14.64
2018-05-01T11:54:55.157Z,14.67
2018-05-01T11:57:21.036Z,14.49
2018-05-01T11:59:48.968Z,14.31
2018-05-01T12:02:14.888Z,14.17
2018-05-01T12:04:44.016Z,14.37
2018-05-01T12:07:10.036Z,14.54
2018-05-01T12:09:37.774Z,14.35
2018-05-01T12:12:03.684Z,14.38
2018-05-01T12:14:33.631Z,14.79
2018-05-01T12:16:59.486Z,15.50
2018-05-01T12:19:27.520Z,15.44
2018-05-01T12:21:53.407Z,14.92
2018-05-01T12:24:19.306Z,14.91
2018-05-01T12:26:45.219Z,14.98
2018-05-01T12:29:11.127Z,15.10
2018-05-01T12:31:40.795Z,15.40
2018-05-01T12:34:06.675Z,15.62
2018-05-01T12:36:33.887Z,15.42
2018-05-01T12:38:59.715Z,15.47
2018-05-01T12:41:28.713Z,16.14
2018-05-01T12:43:54.612Z,16.06
2018-05-01T12:46:23.327Z,16.16
2018-05-01T12:48:49.255Z,16.06
2018-05-01T12:51:18.619Z,15.86
2018-05-01T12:53:44.583Z,15.94
2018-05-01T12:56:13.499Z,15.73
2018-05-01T12:58:39.383Z,15.61
2018-05-01T13:04:21.943Z,15.63
2018-05-01T13:06:49.222Z,15.88
2018-05-01T13:09:16.440Z,16.08
2018-05-01T13:11:43.681Z,16.34
2018-05-01T13:14:10.899Z,16.15
2018-05-01T13:16:38.101Z,15.81
2018-05-01T13:19:05.313Z,15.99
2018-05-01T13:21:32.432Z,15.88
2018-05-01T13:23:59.721Z,15.82
2018-05-01T13:26:26.842Z,15.66
2018-05-01T13:28:54.079Z,16.14
2018-05-01T13:31:21.239Z,16.03
2018-05-01T13:33:48.409Z,15.95
2018-05-01T13:36:16.155Z,15.80
2018-05-01T13:38:43.327Z,15.61
2018-05-01T13:41:10.513Z,15.53
2018-05-01T13:43:37.735Z,15.70
2018-05-01T13:46:04.964Z,16.12
2018-05-01T13:48:32.195Z,16.40
2018-05-01T13:50:59.475Z,16.68
2018-05-01T13:53:26.659Z,16.88
2018-05-01T13:55:53.848Z,17.38
2018-05-01T13:58:21.044Z,17.77
2018-05-01T14:00:48.181Z,17.87
2018-05-01T14:03:15.374Z,17.76
2018-05-01T14:05:42.964Z,17.59
2018-05-01T14:08:10.143Z,17.65
2018-05-01T14:10:37.343Z,17.84
2018-05-01T14:13:04.623Z,18.06
2018-05-01T14:15:31.923Z,18.35
2018-05-01T14:17:59.224Z,18.32
2018-05-01T14:20:26.460Z,17.94
2018-05-01T14:22:53.724Z,18.69
2018-05-01T14:25:21.104Z,18.65
2018-05-01T14:27:48.307Z,18.80
2018-05-01T14:30:15.466Z,19.08
2018-05-01T14:32:42.644Z,19.67
2018-05-01T14:35:09.883Z,19.67
2018-05-01T14:37:37.089Z,19.36
2018-05-01T14:40:04.287Z,19.34
2018-05-01T14:42:31.564Z,19.64
2018-05-01T14:44:58.738Z,19.32
2018-05-01T14:47:25.907Z,19.42
2018-05-01T14:49:53.151Z,19.51
2018-05-01T14:52:20.348Z,18.93
2018-05-01T14:54:47.608Z,18.75
2018-05-01T14:57:14.800Z,18.81
2018-05-01T14:59:41.995Z,19.57
2018-05-01T15:02:09.159Z,20.27
2018-05-01T15:04:36.462Z,20.88
2018-05-01T15:07:03.643Z,21.21
2018-05-01T15:09:30.868Z,21.17
2018-05-01T15:11:58.146Z,20.85
2018-05-01T15:14:25.355Z,20.65
2018-05-01T15:16:52.659Z,20.64
2018-05-01T15:22:29.560Z,20.79
2018-05-01T15:24:55.426Z,21.04
2018-05-01T15:27:21.398Z,20.97
2018-05-01T15:29:47.314Z,20.69
2018-05-01T15:32:13.230Z,20.44
2018-05-01T15:34:39.146Z,20.19
2018-05-01T15:37:05.024Z,19.97
2018-05-01T15:39:30.943Z,19.12
2018-05-01T15:41:56.888Z,19.22
2018-05-01T15:44:22.787Z,19.48
2018-05-01T15:46:49.859Z,19.45
2018-05-01T15:49:15.790Z,19.66
2018-05-01T15:51:41.794Z,19.14
2018-05-01T15:54:07.647Z,19.01
2018-05-01T15:56:33.579Z,18.45
2018-05-01T15:58:59.505Z,18.50
2018-05-01T16:01:25.445Z,18.53
2018-05-01T16:03:51.356Z,18.65
2018-05-01T16:06:17.246Z,18.20
2018-05-01T16:08:43.135Z,18.23
2018-05-01T16:11:09.028Z,18.37
2018-05-01T16:13:34.956Z,18.69
2018-05-01T16:16:00.831Z,19.16
2018-05-01T16:18:26.879Z,19.34
2018-05-01T16:20:52.774Z,19.00
2018-05-01T16:23:18.689Z,18.78
2018-05-01T16:25:44.648Z,18.75
2018-05-01T16:28:10.510Z,18.63
2018-05-01T16:30:36.439Z,18.54
2018-05-01T16:33:02.385Z,18.56
2018-05-01T16:35:28.311Z,18.77
2018-05-01T16:37:56.049Z,18.80
2018-05-01T16:40:22.042Z,19.05
2018-05-01T16:42:50.139Z,19.12
2018-05-01T16:45:16.056Z,18.78
2018-05-01T16:47:48.767Z,18.74
2018-05-01T16:50:14.649Z,18.54
2018-05-01T16:52:40.553Z,18.37
2018-05-01T16:55:06.505Z,18.34
2018-05-01T16:57:34.708Z,17.93
2018-05-01T17:00:00.619Z,17.60
2018-05-01T17:02:26.538Z,17.50
2018-05-01T17:04:52.427Z,17.54
2018-05-01T17:07:18.306Z,17.33
2018-05-01T17:09:47.728Z,16.81
2018-05-01T17:12:13.644Z,16.75
2018-05-01T17:14:42.123Z,16.64
2018-05-01T17:17:08.096Z,16.43
2018-05-01T17:19:35.543Z,16.44
2018-05-01T17:22:01.470Z,16.30
2018-05-01T17:24:31.097Z,16.06
2018-05-01T17:26:57.031Z,15.97
2018-05-01T17:29:26.441Z,16.00
2018-05-01T17:31:52.369Z,15.75
2018-05-01T17:34:20.152Z,15.49
2018-05-01T17:36:46.051Z,15.45
2018-05-01T17:39:11.937Z,15.51
2018-05-01T17:41:37.833Z,15.45
2018-05-01T17:44:03.726Z,15.39
2018-05-01T17:46:31.664Z,15.14
2018-05-01T17:48:57.583Z,14.97
2018-05-01T17:51:27.074Z,14.81
2018-05-01T17:53:52.933Z,14.69
2018-05-01T17:56:20.762Z,14.61
2018-05-01T17:58:46.663Z,14.54
2018-05-01T18:01:15.684Z,14.49
2018-05-01T18:03:41.585Z,14.48
2018-05-01T18:06:10.806Z,14.34
2018-05-01T18:08:36.768Z,14.12
2018-05-01T18:11:05.975Z,14.11
2018-05-01T18:13:31.851Z,14.10
2018-05-01T18:15:57.760Z,13.99
2018-05-01T18:18:23.719Z,13.96
2018-05-01T18:20:49.600Z,13.92
2018-05-01T18:23:16.575Z,13.85
2018-05-01T18:25:42.449Z,13.77
2018-05-01T18:28:11.666Z,13.66
2018-05-01T18:30:37.622Z,13.57
2018-05-01T18:33:06.019Z,13.47
2018-05-01T18:35:31.945Z,13.33
2018-05-01T18:38:00.874Z,13.23
2018-05-01T18:40:26.836Z,13.16
2018-05-01T18:42:56.513Z,13.04
2018-05-01T18:45:29.186Z,13.00
2018-05-01T18:48:01.810Z,12.90
2018-05-01T18:50:30.188Z,12.74
2018-05-01T18:52:54.092Z,12.68
2018-05-01T18:55:20.032Z,12.62
2018-05-01T18:57:45.971Z,12.53
2018-05-01T19:00:11.883Z,12.40
2018-05-01T19:02:38.996Z,12.34
2018-05-01T19:05:04.929Z,12.33
2018-05-01T19:07:37.468Z,12.35
2018-05-01T19:10:04.355Z,12.23
2018-05-01T19:12:30.292Z,12.17
2018-05-01T19:14:56.479Z,11.97
2018-05-01T19:17:22.405Z,11.90
2018-05-01T19:19:48.333Z,11.88
2018-05-01T19:22:14.286Z,11.90
2018-05-01T19:24:40.219Z,11.84
2018-05-01T19:27:06.113Z,11.80
2018-05-01T19:29:32.022Z,11.68
2018-05-01T19:31:57.925Z,11.58
2018-05-01T19:34:23.885Z,11.51
2018-05-01T19:36:49.822Z,11.43
2018-05-01T19:39:15.722Z,11.48
2018-05-01T19:41:41.974Z,11.37
2018-05-01T19:44:07.848Z,11.31
2018-05-01T19:46:37.554Z,11.28
2018-05-01T19:49:03.418Z,11.18
2018-05-01T19:51:32.794Z,11.10
2018-05-01T19:53:58.727Z,11.10
2018-05-01T19:56:26.138Z,11.01
2018-05-01T19:58:52.016Z,10.92
2018-05-01T20:01:24.735Z,10.93
2018-05-01T20:03:50.657Z,10.90
2018-05-01T20:06:16.615Z,10.85
2018-05-01T20:08:42.525Z,10.83
2018-05-01T20:11:08.455Z,10.81
2018-05-01T20:13:34.395Z,10.64
2018-05-01T20:16:00.273Z,10.74
2018-05-01T20:18:27.913Z,10.69
2018-05-01T20:20:53.821Z,10.43
2018-05-01T20:23:22.113Z,10.37
2018-05-01T20:25:47.966Z,10.34
2018-05-01T20:28:17.547Z,10.22
2018-05-01T20:30:43.478Z,10.27
2018-05-01T20:33:11.411Z,10.18
2018-05-01T20:35:37.278Z,10.17
2018-05-01T20:38:06.436Z,10.17
2018-05-01T20:40:32.364Z,10.02
2018-05-01T20:42:58.274Z,10.06
2018-05-01T20:45:24.162Z,9.98
2018-05-01T20:47:50.109Z,9.89
2018-05-01T20:50:17.906Z,9.82
2018-05-01T20:52:43.799Z,9.81
2018-05-01T20:55:13.308Z,9.80
2018-05-01T20:57:39.181Z,9.63
2018-05-01T21:00:07.432Z,9.43
2018-05-01T21:02:33.355Z,9.34
2018-05-01T21:05:02.794Z,9.33
2018-05-01T21:07:28.653Z,9.32
2018-05-01T21:09:56.787Z,9.29
2018-05-01T21:12:22.665Z,9.30
2018-05-01T21:14:52.344Z,9.22
2018-05-01T21:17:18.276Z,9.27
2018-05-01T21:19:44.218Z,9.22
2018-05-01T21:22:10.169Z,9.12
2018-05-01T21:24:36.039Z,9.10
2018-05-01T21:27:03.608Z,9.12
2018-05-01T21:29:29.503Z,9.17
2018-05-01T21:31:58.874Z,9.22
2018-05-01T21:34:24.845Z,9.13
2018-05-01T21:36:54.071Z,9.15
2018-05-01T21:39:19.968Z,9.20
2018-05-01T21:41:47.208Z,9.21
2018-05-01T21:44:13.085Z,9.17
2018-05-01T21:46:41.798Z,9.07
2018-05-01T21:49:07.703Z,9.07
2018-05-01T21:51:36.447Z,9.03
2018-05-01T21:54:02.373Z,8.93
2018-05-01T21:56:28.239Z,8.92
2018-05-01T21:58:54.145Z,8.84
2018-05-01T22:01:20.082Z,8.65
2018-05-01T22:03:48.601Z,8.66
2018-05-01T22:06:14.510Z,8.71
2018-05-01T22:08:44.319Z,8.65
2018-05-01T22:11:10.241Z,8.60
2018-05-01T22:13:39.519Z,8.57
2018-05-01T22:16:05.431Z,8.58
2018-05-01T22:18:33.256Z,8.63
2018-05-01T22:20:59.114Z,8.56
2018-05-01T22:23:28.164Z,8.46
2018-05-01T22:25:54.047Z,8.52
2018-05-01T22:28:23.247Z,8.50
2018-05-01T22:30:49.130Z,8.41
2018-05-01T22:33:15.050Z,8.35
2018-05-01T22:35:40.965Z,8.32
2018-05-01T22:38:06.860Z,8.32
2018-05-01T22:40:33.659Z,8.32
2018-05-01T22:42:59.527Z,8.09
2018-05-01T22:45:28.547Z,7.98
2018-05-01T22:47:54.496Z,7.96
2018-05-01T22:50:24.116Z,8.04
2018-05-01T22:52:50.039Z,8.11
2018-05-01T22:55:19.395Z,8.15
2018-05-01T22:57:45.292Z,8.18
2018-05-01T23:00:12.906Z,8.21
2018-05-01T23:02:38.794Z,8.21
2018-05-01T23:05:07.581Z,8.22
2018-05-01T23:07:33.504Z,8.23
2018-05-01T23:09:59.448Z,8.19
2018-05-01T23:12:25.331Z,8.02
2018-05-01T23:14:51.321Z,8.07
2018-05-01T23:17:20.745Z,8.05
2018-05-01T23:19:46.618Z,8.02
2018-05-01T23:22:13.785Z,7.89
2018-05-01T23:24:39.663Z,7.93
2018-05-01T23:27:08.478Z,8.01
2018-05-01T23:29:34.396Z,7.93
2018-05-01T23:32:03.127Z,7.90
2018-05-01T23:34:29.025Z,7.85
2018-05-01T23:36:58.018Z,7.76
2018-05-01T23:39:23.901Z,7.69
2018-05-01T23:41:53.314Z,7.59
2018-05-01T23:44:19.232Z,7.59
2018-05-01T23:46:45.131Z,7.63
2018-05-01T23:49:11.013Z,7.60
2018-05-01T23:51:36.895Z,7.68
2018-05-01T23:54:04.447Z,7.73
2018-05-01T23:56:30.354Z,7.78
2018-05-01T23:58:59.773Z,7.77
